Time;durP1;ratioP1;P1;durP2;ratioP2;P2;SDS_P1;SDS_P2;PMS_P1;PMS_P2;Temp;Humidity;BMP_temperature;BMP_pressure;BME280_temperature;BME280_humidity;BME280_pressure;Samples;Min_cycle;Max_cycle;Signal;HPM_P1;HPM_P2
2022/12/01 00:00:04;;;;;;;7.80;7.00;;;;;;;20.27;49.14;97825.69;5010126;28;20262;-91
2022/12/01 00:02:30;;;;;;;7.40;6.70;;;;;;;19.50;49.11;97686.53;5017199;28;20190;-92
2022/12/01 00:04:57;;;;;;;7.27;6.57;;;;;;;20.29;49.29;97820.66;5014443;28;20183;-89
2022/12/01 00:07:24;;;;;;;7.70;6.93;;;;;;;19.25;49.06;97636.28;5011025;28;20196;-91
2022/12/01 00:12:42;;;;;;;6.87;6.27;;;;;;;19.55;49.14;97687.59;5011154;28;20275;-91
2022/12/01 00:15:11;;;;;;;8.33;7.53;;;;;;;19.84;49.33;97738.06;5012561;28;20229;-92
2022/12/01 00:17:38;;;;;;;7.03;6.43;;;;;;;19.76;49.00;97739.44;5012930;28;20187;-91
2022/12/01 00:20:05;;;;;;;7.50;6.70;;;;;;;19.35;49.22;97665.53;5012500;28;20258;-90
2022/12/01 00:22:32;;;;;;;7.40;6.70;;;;;;;20.31;49.16;97808.84;5015545;28;20191;-91
2022/12/01 00:24:58;;;;;;;7.60;6.90;;;;;;;19.57;48.80;97696.19;5013845;28;20190;-91
2022/12/01 00:27:25;;;;;;;7.60;6.90;;;;;;;20.03;49.29;97763.47;5015670;28;20200;-89
2022/12/01 00:29:51;;;;;;;6.60;6.00;;;;;;;20.52;49.16;97843.69;5014453;28;20229;-91
2022/12/01 00:32:18;;;;;;;7.33;6.70;;;;;;;19.44;49.43;97668.47;5010858;28;20178;-91
2022/12/01 00:34:45;;;;;;;7.60;6.90;;;;;;;20.28;49.49;97801.91;5013932;28;20219;-92
2022/12/01 00:37:11;;;;;;;7.73;7.03;;;;;;;19.33;49.30;97640.00;5000166;28;20184;-91
2022/12/01 00:39:38;;;;;;;7.53;6.83;;;;;;;20.28;49.60;97809.56;5014123;28;20207;-91
2022/12/01 00:42:04;;;;;;;7.57;6.87;;;;;;;19.37;49.03;97663.94;5014155;28;20298;-92
2022/12/01 00:44:38;;;;;;;7.37;6.77;;;;;;;19.28;49.41;97644.06;5016319;28;20215;-92
2022/12/01 00:47:05;;;;;;;6.90;6.20;;;;;;;19.56;49.36;97707.19;5013438;28;20206;-91
2022/12/01 00:49:31;;;;;;;7.10;6.40;;;;;;;19.84;49.32;97749.13;5009365;28;20252;-91
2022/12/01 00:51:58;;;;;;;6.93;6.30;;;;;;;20.18;49.49;97811.72;5015082;28;20251;-91
2022/12/01 00:54:24;;;;;;;6.90;6.30;;;;;;;19.31;49.19;97672.22;5010641;28;20214;-91
2022/12/01 00:56:51;;;;;;;6.87;6.27;;;;;;;19.35;49.42;97679.16;4995612;28;20195;-92
2022/12/01 00:59:17;;;;;;;6.67;6.07;;;;;;;20.10;49.17;97808.81;5012848;28;20213;-92
2022/12/01 01:01:45;;;;;;;6.87;6.17;;;;;;;20.26;49.47;97839.28;5013232;28;20223;-90
2022/12/01 01:04:12;;;;;;;6.80;6.20;;;;;;;20.76;49.51;97922.94;5016402;28;20183;-92
2022/12/01 01:06:38;;;;;;;7.53;6.83;;;;;;;20.28;49.66;97847.84;5015327;28;20183;-91
2022/12/01 01:09:05;;;;;;;7.27;6.57;;;;;;;20.23;49.12;97831.50;5012024;28;20198;-91
2022/12/01 01:11:31;;;;;;;7.50;6.80;;;;;;;19.20;49.58;97668.31;5015995;28;20242;-89
2022/12/01 01:13:59;;;;;;;7.43;6.73;;;;;;;19.40;49.32;97692.97;5008497;28;20210;-91
2022/12/01 01:16:26;;;;;;;7.03;6.43;;;;;;;20.28;49.08;97836.78;5013391;28;20182;-92
2022/12/01 01:18:52;;;;;;;7.43;6.73;;;;;;;19.67;49.34;97739.09;5010944;28;20183;-91
2022/12/01 01:21:20;;;;;;;8.00;7.27;;;;;;;20.24;49.22;97837.47;5013384;28;20217;-91
2022/12/01 01:23:47;;;;;;;7.03;6.43;;;;;;;19.77;49.26;97761.56;5014181;28;20195;-92
2022/12/01 01:26:16;;;;;;;7.47;6.77;;;;;;;20.77;49.35;97932.34;4996987;28;20183;-91
2022/12/01 01:28:42;;;;;;;7.70;6.80;;;;;;;20.25;49.38;97822.22;5015129;28;20258;-92
2022/12/01 01:31:11;;;;;;;7.77;7.07;;;;;;;20.15;49.19;97799.72;5007642;28;20286;-91
2022/12/01 01:33:37;;;;;;;7.23;6.53;;;;;;;19.38;49.42;97678.41;5006362;28;20372;-90
2022/12/01 01:36:04;;;;;;;7.47;6.77;;;;;;;20.05;49.36;97796.72;5009582;28;20211;-92
2022/12/01 01:38:31;;;;;;;7.63;6.93;;;;;;;20.34;49.38;97835.34;5014496;28;20199;-91
2022/12/01 01:40:57;;;;;;;7.40;6.70;;;;;;;19.79;49.03;97745.56;5011976;28;20207;-89
2022/12/01 01:43:49;;;;;;;6.73;6.13;;;;;;;19.30;49.25;97677.25;5014289;28;20278;-91
2022/12/01 01:46:26;;;;;;;7.17;6.47;;;;;;;20.24;49.38;97820.47;5008275;28;20211;-92
2022/12/01 01:48:58;;;;;;;7.13;6.43;;;;;;;19.83;49.18;97757.59;5009663;28;20261;-89
2022/12/01 01:51:28;;;;;;;7.20;6.50;;;;;;;20.50;49.19;97880.19;5010498;28;20210;-92
2022/12/01 01:53:58;;;;;;;6.60;6.00;;;;;;;19.41;49.49;97693.81;5003297;28;20187;-91
2022/12/01 01:56:24;;;;;;;7.00;6.40;;;;;;;19.87;49.04;97784.09;5012687;28;20247;-91
2022/12/01 01:58:51;;;;;;;7.60;6.60;;;;;;;20.75;49.29;97914.41;5011347;28;20210;-91
2022/12/01 02:01:17;;;;;;;7.00;6.30;;;;;;;20.14;49.26;97822.63;5003099;28;20247;-92
2022/12/01 02:03:44;;;;;;;7.33;6.63;;;;;;;19.33;49.35;97664.63;4999699;28;20192;-92
2022/12/01 02:06:11;;;;;;;6.90;6.30;;;;;;;19.57;49.12;97712.34;5013399;28;20194;-91
2022/12/01 02:08:37;;;;;;;7.23;6.63;;;;;;;20.75;49.34;97916.13;5010720;28;20267;-92
2022/12/01 02:11:07;;;;;;;7.07;6.37;;;;;;;20.74;49.37;97907.56;5014266;28;20203;-90
2022/12/01 02:13:55;;;;;;;6.80;6.17;;;;;;;20.75;49.13;97903.34;5012513;28;20194;-91
2022/12/01 02:16:24;;;;;;;7.20;6.50;;;;;;;20.74;49.08;97901.56;5014960;28;20270;-92
2022/12/01 02:19:15;;;;;;;7.27;6.57;;;;;;;20.76;49.43;97899.97;5009949;28;20242;-91
2022/12/01 02:22:06;;;;;;;7.53;6.83;;;;;;;20.75;49.26;97893.13;5014876;28;20214;-92
2022/12/01 02:24:33;;;;;;;7.47;6.77;;;;;;;20.75;49.15;97896.53;5006004;28;20199;-92
2022/12/01 02:27:07;;;;;;;7.57;6.87;;;;;;;20.74;49.28;97897.34;5016933;28;20206;-90
2022/12/01 02:30:00;;;;;;;7.43;6.73;;;;;;;20.38;49.24;97826.13;5006080;28;20186;-90
2022/12/01 02:32:30;;;;;;;7.57;6.87;;;;;;;20.74;49.45;97889.69;4995658;28;20199;-92
2022/12/01 02:35:03;;;;;;;7.03;6.40;;;;;;;20.74;49.38;97892.25;4997529;28;20266;-91
2022/12/01 02:37:43;;;;;;;7.30;6.60;;;;;;;19.38;49.20;97658.03;5008243;28;20183;-92
2022/12/01 02:40:15;;;;;;;6.57;6.07;;;;;;;20.74;49.18;97887.13;5013152;28;20210;-90
2022/12/01 02:42:49;;;;;;;7.17;6.57;;;;;;;20.74;49.45;97899.91;5010194;28;20236;-91
2022/12/01 02:45:23;;;;;;;6.87;6.27;;;;;;;19.33;49.16;97657.84;5013696;28;20197;-92
2022/12/01 02:47:50;;;;;;;7.20;6.50;;;;;;;20.23;49.17;97790.69;5010803;28;20250;-90
2022/12/01 02:50:16;;;;;;;6.70;6.10;;;;;;;20.72;49.23;97888.75;5014567;28;20266;-91
2022/12/01 02:52:43;;;;;;;6.90;6.30;;;;;;;20.18;49.30;97786.19;5003567;28;20187;-91
2022/12/01 02:55:09;;;;;;;6.60;6.00;;;;;;;20.74;49.44;97881.13;5013283;28;20211;-91
2022/12/01 02:57:36;;;;;;;6.70;6.10;;;;;;;19.52;48.82;97688.38;4995108;28;20187;-89
2022/12/01 03:00:03;;;;;;;7.27;6.60;;;;;;;20.74;49.42;97888.81;5008260;28;20707;-91
2022/12/01 03:02:42;;;;;;;7.00;6.40;;;;;;;19.66;49.47;97702.50;5012136;28;20190;-91
2022/12/01 03:05:14;;;;;;;6.07;5.57;;;;;;;19.31;49.34;97639.09;5009962;28;20226;-90
2022/12/01 03:08:12;;;;;;;6.73;6.13;;;;;;;20.74;49.28;97865.81;4977865;28;20190;-93
2022/12/01 03:10:52;;;;;;;7.30;6.60;;;;;;;19.83;49.32;97713.38;5010543;28;20276;-92
2022/12/01 03:13:25;;;;;;;7.00;6.30;;;;;;;20.73;49.39;97870.06;5013674;28;20183;-94
2022/12/01 03:16:15;;;;;;;7.10;6.40;;;;;;;20.73;49.35;97875.19;5004973;28;20233;-94
2022/12/01 03:18:47;;;;;;;6.60;5.90;;;;;;;20.74;49.33;97876.91;4996284;28;20198;-94
2022/12/01 03:21:42;;;;;;;7.57;6.80;;;;;;;20.20;49.33;97785.47;4994476;28;20198;-88
2022/12/01 03:24:13;;;;;;;7.10;6.50;;;;;;;20.73;49.31;97870.06;4978984;28;20199;-93
2022/12/01 03:26:41;;;;;;;7.30;6.60;;;;;;;19.42;49.42;97640.38;4995175;28;20187;-92
2022/12/01 03:29:10;;;;;;;6.87;6.27;;;;;;;19.40;49.36;97649.66;4992555;28;20194;-94
2022/12/01 03:31:39;;;;;;;7.13;6.53;;;;;;;18.90;49.65;97537.19;4980399;28;20229;-92
2022/12/01 03:34:24;;;;;;;6.87;6.23;;;;;;;20.07;49.39;97772.97;5009253;28;20183;-92
2022/12/01 03:36:55;;;;;;;6.80;6.20;;;;;;;19.80;49.45;97706.47;5015574;28;20187;-93
2022/12/01 03:39:25;;;;;;;6.13;5.60;;;;;;;19.40;49.37;97653.88;4974032;28;20200;-93
2022/12/01 03:42:01;;;;;;;6.30;5.70;;;;;;;20.26;49.45;97792.47;5001897;28;20751;-93
2022/12/01 03:44:37;;;;;;;6.80;6.20;;;;;;;19.40;49.40;97636.91;4974761;28;20235;-93
2022/12/01 03:47:09;;;;;;;6.87;6.27;;;;;;;19.98;49.41;97737.78;4997709;28;20206;-93
2022/12/01 03:49:36;;;;;;;6.77;6.17;;;;;;;20.00;49.27;97735.31;4991135;28;20199;-93
2022/12/01 03:52:21;;;;;;;6.30;5.70;;;;;;;20.74;49.33;97861.59;5006958;28;20199;-94
2022/12/01 03:54:51;;;;;;;6.53;5.93;;;;;;;20.74;49.61;97860.72;5013645;28;20234;-92
2022/12/01 03:57:22;;;;;;;6.23;5.73;;;;;;;19.95;49.45;97722.38;5013140;28;20198;-93
2022/12/01 03:59:49;;;;;;;6.23;5.63;;;;;;;19.14;49.70;97573.81;4982852;28;20247;-89
2022/12/01 04:02:17;;;;;;;6.00;5.50;;;;;;;19.90;49.68;97723.84;5012879;28;20179;-89
2022/12/01 04:04:43;;;;;;;6.80;6.20;;;;;;;19.90;49.32;97721.31;5015726;28;20203;-93
2022/12/01 04:07:12;;;;;;;6.73;6.13;;;;;;;19.99;49.38;97741.22;5014146;28;20196;-93
2022/12/01 04:09:40;;;;;;;6.13;5.60;;;;;;;19.79;49.38;97699.66;5008357;28;20192;-93
2022/12/01 04:15:09;;;;;;;6.63;6.03;;;;;;;19.87;49.38;97738.19;5009352;28;20195;-93
2022/12/01 04:17:36;;;;;;;6.73;6.13;;;;;;;20.49;49.51;97827.41;5000664;28;20210;-93
2022/12/01 04:20:05;;;;;;;6.17;5.67;;;;;;;18.92;49.54;97576.31;5009466;28;20195;-93
2022/12/01 04:22:32;;;;;;;5.87;5.37;;;;;;;19.69;49.37;97700.06;5014360;28;20303;-93
2022/12/01 04:24:59;;;;;;;6.87;6.17;;;;;;;20.27;49.08;97791.66;5011649;28;20184;-93
2022/12/01 04:27:25;;;;;;;6.67;6.07;;;;;;;19.96;49.22;97741.09;4998370;28;20179;-93
2022/12/01 04:29:52;;;;;;;6.43;5.83;;;;;;;19.31;49.54;97638.22;4997833;28;20199;-91
2022/12/01 04:32:19;;;;;;;6.13;5.63;;;;;;;20.08;49.80;97762.00;5014030;28;20185;-92
2022/12/01 04:34:45;;;;;;;6.40;5.80;;;;;;;20.23;49.07;97780.47;5016130;28;20213;-93
2022/12/01 04:37:12;;;;;;;6.30;5.80;;;;;;;19.40;49.36;97641.13;5008304;28;20182;-93
2022/12/01 04:39:40;;;;;;;5.90;5.40;;;;;;;20.27;49.50;97799.31;4998980;28;20187;-93
2022/12/01 04:42:07;;;;;;;6.27;5.73;;;;;;;19.34;49.38;97646.88;5010296;28;20184;-93
2022/12/01 04:44:34;;;;;;;7.00;6.40;;;;;;;20.21;49.65;97779.53;4998929;28;20286;-93
2022/12/01 04:47:02;;;;;;;5.90;5.40;;;;;;;19.98;49.39;97742.91;4980471;28;20207;-93
2022/12/01 04:49:28;;;;;;;6.87;6.23;;;;;;;20.68;49.49;97855.38;4982904;28;20191;-93
2022/12/01 04:51:55;;;;;;;6.00;5.40;;;;;;;19.77;49.37;97703.81;5009654;28;20202;-93
2022/12/01 04:54:22;;;;;;;7.00;6.30;;;;;;;20.74;49.98;97871.81;4991258;28;20200;-92
2022/12/01 04:56:48;;;;;;;6.30;5.70;;;;;;;20.66;50.06;97857.03;4998819;28;20240;-94
2022/12/01 04:59:15;;;;;;;5.73;5.23;;;;;;;19.44;49.35;97642.97;4992892;28;20190;-94
2022/12/01 05:01:41;;;;;;;6.93;6.33;;;;;;;19.82;49.35;97703.97;4996707;28;20224;-94
2022/12/01 05:04:10;;;;;;;6.30;5.73;;;;;;;19.07;49.47;97582.00;5010831;28;20439;-92
2022/12/01 05:06:37;;;;;;;6.77;6.17;;;;;;;20.02;49.47;97735.34;4995306;28;20201;-92
2022/12/01 05:09:04;;;;;;;6.60;6.00;;;;;;;19.97;49.33;97747.94;5013321;28;20179;-93
2022/12/01 05:11:31;;;;;;;6.33;5.73;;;;;;;19.04;49.37;97570.84;4992036;28;20254;-90
2022/12/01 05:13:57;;;;;;;6.37;5.80;;;;;;;19.88;49.52;97724.63;5016034;28;20183;-92
2022/12/01 05:16:28;;;;;;;6.57;5.97;;;;;;;19.80;49.46;97708.16;4993936;28;20285;-93
2022/12/01 05:21:42;;;;;;;6.70;6.00;;;;;;;19.83;49.41;97724.44;5008649;28;20207;-94
2022/12/01 05:24:09;;;;;;;6.70;6.10;;;;;;;19.84;49.32;97726.19;5013795;28;20186;-94
2022/12/01 05:26:36;;;;;;;5.93;5.43;;;;;;;19.37;49.20;97639.34;4993531;28;20556;-93
2022/12/01 05:29:02;;;;;;;6.20;5.63;;;;;;;19.41;49.55;97663.25;4998065;28;20642;-94
2022/12/01 05:31:29;;;;;;;6.80;6.10;;;;;;;20.12;49.61;97774.03;4995217;28;20205;-93
2022/12/01 05:33:56;;;;;;;6.47;5.87;;;;;;;20.73;49.53;97875.19;4999101;28;20263;-93
2022/12/01 05:36:23;;;;;;;6.47;5.87;;;;;;;19.37;49.46;97638.47;5012497;28;20246;-94
2022/12/01 05:38:49;;;;;;;5.77;5.27;;;;;;;19.84;49.28;97726.19;5007814;28;20187;-94
2022/12/01 05:41:16;;;;;;;6.40;5.90;;;;;;;19.43;49.32;97665.06;4997290;28;20206;-93
2022/12/01 05:43:42;;;;;;;7.23;6.53;;;;;;;19.45;49.65;97676.16;5009672;28;20184;-90
2022/12/01 05:46:09;;;;;;;6.43;5.83;;;;;;;19.82;49.36;97719.28;4997761;28;20203;-93
2022/12/01 05:48:35;;;;;;;6.30;5.70;;;;;;;19.57;49.78;97680.91;5010894;28;20199;-94
2022/12/01 05:51:13;;;;;;;6.10;5.60;;;;;;;19.85;49.48;97727.06;5013144;28;20202;-94
2022/12/01 05:53:39;;;;;;;6.47;5.87;;;;;;;19.37;49.42;97641.00;4977437;28;20221;-92
2022/12/01 05:56:06;;;;;;;6.67;6.07;;;;;;;20.02;49.57;97754.09;4993332;28;20245;-94
2022/12/01 05:58:33;;;;;;;5.80;5.30;;;;;;;20.01;49.38;97749.78;4995706;28;20191;-93
2022/12/01 06:01:00;;;;;;;6.17;5.60;;;;;;;20.50;49.39;97832.56;4992553;28;20278;-91
2022/12/01 06:03:26;;;;;;;6.30;5.70;;;;;;;20.16;49.42;97775.91;5012577;28;20199;-92
2022/12/01 06:05:53;;;;;;;6.60;6.00;;;;;;;19.57;49.42;97676.66;5006076;28;20263;-93
2022/12/01 06:08:19;;;;;;;6.70;6.00;;;;;;;19.97;49.70;97747.94;5013294;28;20179;-91
2022/12/01 06:10:46;;;;;;;6.00;5.40;;;;;;;19.84;49.45;97740.63;5009713;28;20250;-91
2022/12/01 06:13:12;;;;;;;6.73;6.13;;;;;;;20.50;49.28;97847.00;5003757;28;20210;-91
2022/12/01 06:15:39;;;;;;;6.10;5.50;;;;;;;19.76;49.53;97714.81;5012235;28;20223;-91
2022/12/01 06:18:06;;;;;;;5.90;5.40;;;;;;;20.72;49.58;97875.97;4994009;28;20259;-91
2022/12/01 06:20:33;;;;;;;6.23;5.73;;;;;;;20.01;49.79;97754.03;5004725;28;20439;-92
2022/12/01 06:22:59;;;;;;;6.40;5.80;;;;;;;19.68;49.61;97702.56;5012687;28;20222;-91
2022/12/01 06:25:26;;;;;;;6.23;5.63;;;;;;;20.04;49.42;97779.66;5006104;28;20204;-91
2022/12/01 06:27:57;;;;;;;6.50;5.80;;;;;;;19.08;49.48;97610.91;4989181;28;20179;-91
2022/12/01 06:30:23;;;;;;;6.23;5.73;;;;;;;19.86;49.43;97739.00;5005624;28;20210;-92
2022/12/01 06:32:50;;;;;;;6.20;5.70;;;;;;;20.29;49.57;97818.09;4998579;28;20209;-92
2022/12/01 06:35:16;;;;;;;6.33;5.80;;;;;;;19.99;49.41;97762.47;5008952;28;20210;-91
2022/12/01 06:37:43;;;;;;;6.80;6.13;;;;;;;19.98;49.55;97760.75;5014144;28;20183;-92
2022/12/01 06:40:10;;;;;;;6.57;5.97;;;;;;;20.51;49.41;97853.84;5010877;28;20222;-92
2022/12/01 06:42:37;;;;;;;6.30;5.70;;;;;;;20.70;49.63;97898.06;5005685;28;20286;-89
2022/12/01 06:45:04;;;;;;;6.07;5.53;;;;;;;19.95;49.59;97758.06;4998022;28;20222;-92
2022/12/01 06:47:30;;;;;;;5.83;5.30;;;;;;;19.60;49.50;97726.91;4990124;28;20279;-92
2022/12/01 06:49:57;;;;;;;6.00;5.40;;;;;;;20.51;49.83;97849.63;5007575;28;20321;-92
2022/12/01 06:52:24;;;;;;;6.57;5.97;;;;;;;19.34;49.70;97651.97;5001658;28;20191;-91
2022/12/01 06:54:50;;;;;;;6.60;6.00;;;;;;;19.10;49.58;97615.25;5007793;28;20186;-91
2022/12/01 06:57:17;;;;;;;5.90;5.40;;;;;;;20.11;49.71;97802.94;5010523;28;20266;-91
2022/12/01 06:59:44;;;;;;;6.03;5.43;;;;;;;19.39;49.56;97663.19;5005383;28;20198;-90
2022/12/01 07:02:10;;;;;;;6.43;5.83;;;;;;;20.59;49.49;97873.78;5012019;28;20608;-91
2022/12/01 07:04:37;;;;;;;6.03;5.43;;;;;;;20.38;49.37;97844.88;5006494;28;20199;-91
2022/12/01 07:07:04;;;;;;;6.57;5.90;;;;;;;19.22;49.46;97646.31;5014663;28;20190;-92
2022/12/01 07:09:31;;;;;;;6.27;5.73;;;;;;;20.38;49.52;97856.75;5005644;28;20176;-91
2022/12/01 07:11:57;;;;;;;6.10;5.53;;;;;;;20.48;50.01;97864.81;5006909;28;20195;-92
2022/12/01 07:14:25;;;;;;;6.60;6.00;;;;;;;19.32;49.35;97655.22;5008985;28;20180;-92
2022/12/01 07:16:52;;;;;;;6.10;5.60;;;;;;;20.28;49.30;97827.44;4994328;28;20221;-90
2022/12/01 07:19:19;;;;;;;6.53;5.93;;;;;;;19.98;49.25;97768.41;4993150;28;20274;-92
2022/12/01 07:21:45;;;;;;;6.17;5.67;;;;;;;20.78;49.84;97911.97;5012821;28;20203;-92
2022/12/01 07:24:12;;;;;;;6.40;5.80;;;;;;;20.29;49.49;97826.66;5011422;28;20183;-92
2022/12/01 07:26:39;;;;;;;6.27;5.67;;;;;;;20.58;49.43;97889.91;5005599;28;20208;-92
2022/12/01 07:29:07;;;;;;;6.00;5.47;;;;;;;20.08;49.61;97804.47;4994515;28;20183;-91
2022/12/01 07:31:35;;;;;;;6.07;5.47;;;;;;;20.52;49.35;97883.69;4991846;28;20226;-92
2022/12/01 07:34:01;;;;;;;6.20;5.60;;;;;;;20.52;49.58;97876.03;5011720;28;20218;-90
2022/12/01 07:36:28;;;;;;;6.73;6.13;;;;;;;20.61;49.39;97889.16;5009582;28;20242;-92
2022/12/01 07:38:54;;;;;;;6.73;6.13;;;;;;;19.38;49.59;97693.69;5011965;28;20203;-91
2022/12/01 07:41:21;;;;;;;6.70;6.03;;;;;;;19.60;49.48;97721.81;5010891;28;20222;-92
2022/12/01 07:43:47;;;;;;;6.23;5.63;;;;;;;20.28;49.67;97847.84;5005414;28;20188;-92
2022/12/01 07:46:21;;;;;;;6.07;5.57;;;;;;;19.33;49.21;97682.47;5012195;28;20190;-92
2022/12/01 07:48:50;;;;;;;6.43;5.93;;;;;;;20.34;49.16;97870.22;5007617;28;20230;-91
2022/12/01 07:51:17;;;;;;;6.10;5.50;;;;;;;20.03;49.24;97796.66;4992007;28;20242;-92
2022/12/01 07:53:44;;;;;;;7.00;6.20;;;;;;;20.02;49.44;97796.59;5005778;28;20230;-91
2022/12/01 07:56:10;;;;;;;6.67;6.07;;;;;;;20.68;49.34;97917.53;5006477;28;20223;-92
2022/12/01 07:58:37;;;;;;;6.70;6.10;;;;;;;19.37;49.51;97677.56;4992842;28;20191;-91
2022/12/01 08:01:14;;;;;;;5.80;5.30;;;;;;;19.37;49.40;97687.75;4983233;28;20210;-92
2022/12/01 08:03:41;;;;;;;6.30;5.70;;;;;;;20.52;49.40;97878.59;5010339;28;20203;-93
2022/12/01 08:06:08;;;;;;;6.37;5.87;;;;;;;19.55;49.43;97716.53;5008035;28;20187;-92
2022/12/01 08:08:35;;;;;;;6.33;5.80;;;;;;;20.69;49.40;97915.88;4979140;28;20655;-91
2022/12/01 08:11:04;;;;;;;6.63;5.97;;;;;;;20.01;49.20;97813.56;4985400;28;20220;-93
2022/12/01 08:13:31;;;;;;;6.60;6.00;;;;;;;19.33;49.34;97687.56;4999087;28;20179;-92
2022/12/01 08:15:57;;;;;;;6.60;5.93;;;;;;;19.34;49.40;97679.09;5009819;28;20259;-91
2022/12/01 08:18:24;;;;;;;6.57;5.97;;;;;;;20.59;49.23;97904.44;5005902;28;20184;-92
2022/12/01 08:20:53;;;;;;;6.10;5.60;;;;;;;20.68;49.13;97915.00;5014777;28;20246;-92
2022/12/01 08:23:20;;;;;;;6.07;5.53;;;;;;;20.58;49.58;97889.03;4988113;28;20194;-91
2022/12/01 08:25:46;;;;;;;6.10;5.53;;;;;;;20.52;49.14;97881.16;5009621;28;20279;-92
2022/12/01 08:28:13;;;;;;;6.03;5.53;;;;;;;19.99;49.38;97798.19;5015278;28;20202;-92
2022/12/01 08:30:40;;;;;;;7.03;6.33;;;;;;;19.94;49.25;97786.06;5009572;28;20283;-92
2022/12/01 08:33:06;;;;;;;6.40;5.80;;;;;;;19.83;49.33;97779.66;5017757;28;20266;-91
2022/12/01 08:35:34;;;;;;;6.70;6.10;;;;;;;20.01;49.30;97818.66;5009490;28;20188;-93
2022/12/01 08:38:01;;;;;;;6.40;5.80;;;;;;;20.29;49.32;97859.81;5017992;28;20222;-92
2022/12/01 08:40:28;;;;;;;6.70;6.10;;;;;;;20.59;49.49;97912.09;5010808;28;20242;-89
2022/12/01 08:42:54;;;;;;;7.27;6.60;;;;;;;20.59;49.54;97906.09;5011262;28;20281;-91
2022/12/01 08:45:22;;;;;;;6.27;5.67;;;;;;;20.07;49.36;97818.06;5014061;28;20196;-93
2022/12/01 08:47:48;;;;;;;6.63;6.03;;;;;;;20.13;49.34;97826.84;5010347;28;20251;-91
2022/12/01 08:50:16;;;;;;;6.50;5.90;;;;;;;19.37;49.33;97712.38;5016182;28;20720;-92
2022/12/01 08:52:42;;;;;;;6.83;6.23;;;;;;;19.35;49.43;97697.00;5004446;28;20260;-91
2022/12/01 08:55:09;;;;;;;6.77;6.17;;;;;;;19.99;49.85;97802.44;5010098;28;20179;-92
2022/12/01 08:57:35;;;;;;;6.53;5.93;;;;;;;19.33;49.29;97701.16;4991141;28;20222;-91
2022/12/01 09:00:02;;;;;;;6.67;6.07;;;;;;;19.64;49.33;97752.59;5011228;28;20205;-91
2022/12/01 09:02:29;;;;;;;6.60;6.00;;;;;;;19.33;49.34;97695.22;5011345;28;20188;-91
2022/12/01 09:04:56;;;;;;;6.73;6.13;;;;;;;20.30;49.45;97858.13;5011592;28;20198;-91
2022/12/01 09:07:22;;;;;;;6.53;5.90;;;;;;;20.25;49.42;97857.09;4998773;28;20202;-91
2022/12/01 09:09:52;;;;;;;6.60;6.00;;;;;;;20.33;49.46;97865.91;4995779;28;20219;-92
2022/12/01 09:12:19;;;;;;;6.70;6.00;;;;;;;19.03;49.05;97643.84;4993085;28;20202;-92
2022/12/01 09:14:48;;;;;;;6.43;5.83;;;;;;;20.24;49.38;97845.13;5011157;28;20207;-93
2022/12/01 09:17:16;;;;;;;6.57;5.97;;;;;;;20.17;49.34;97838.03;5015163;28;20227;-92
2022/12/01 09:19:42;;;;;;;6.37;5.77;;;;;;;19.36;49.28;97703.84;5011493;28;20206;-92
2022/12/01 09:22:09;;;;;;;6.73;5.90;;;;;;;19.64;49.29;97749.16;5014985;28;20183;-88
2022/12/01 09:24:36;;;;;;;7.00;6.17;;;;;;;20.32;49.35;97861.63;4996585;28;20199;-93
2022/12/01 09:27:06;;;;;;;6.20;5.60;;;;;;;19.47;49.38;97711.91;5001568;28;20195;-90
2022/12/01 09:29:32;;;;;;;6.53;5.90;;;;;;;20.64;49.29;97920.81;5012646;28;20187;-91
2022/12/01 09:31:59;;;;;;;6.63;6.03;;;;;;;19.11;49.17;97657.75;5009522;28;20205;-90
2022/12/01 09:34:26;;;;;;;6.70;6.10;;;;;;;20.50;49.34;97890.41;4996771;28;20194;-91
2022/12/01 09:36:56;;;;;;;6.60;6.00;;;;;;;20.26;49.81;97871.59;5011049;28;20217;-92
2022/12/01 09:39:23;;;;;;;6.50;5.90;;;;;;;20.53;49.21;97899.06;5013846;28;20179;-91
2022/12/01 09:41:50;;;;;;;6.20;5.60;;;;;;;20.13;49.34;97826.84;5010862;28;20291;-92
2022/12/01 09:44:47;;;;;;;6.07;5.50;;;;;;;20.77;49.38;97940.88;4993954;28;20183;-92
2022/12/01 09:47:30;;;;;;;6.77;6.17;;;;;;;20.76;49.53;97940.84;5004831;28;20267;-91
2022/12/01 09:50:09;;;;;;;6.57;5.97;;;;;;;20.76;49.48;97936.59;5016054;28;20242;-92
2022/12/01 09:52:44;;;;;;;6.60;6.00;;;;;;;20.24;49.28;97845.13;4999415;28;20189;-91
2022/12/01 09:55:12;;;;;;;6.50;5.90;;;;;;;20.03;49.45;97811.94;5016863;28;20199;-92
2022/12/01 09:57:39;;;;;;;6.23;5.63;;;;;;;20.50;49.31;97892.97;4990599;28;20231;-92
2022/12/01 10:00:23;;;;;;;6.20;5.60;;;;;;;19.95;49.26;97821.84;5009082;28;20210;-92
2022/12/01 10:03:12;;;;;;;6.07;5.50;;;;;;;20.35;49.27;97862.63;5010099;28;20236;-89
2022/12/01 10:06:18;;;;;;;6.13;5.53;;;;;;;19.56;49.36;97730.13;5009398;28;20443;-92
2022/12/01 10:09:05;;;;;;;6.53;5.93;;;;;;;20.31;49.09;97842.88;5000840;28;20226;-93
2022/12/01 10:11:38;;;;;;;6.43;5.83;;;;;;;20.25;49.46;97852.84;5012907;28;20209;-92
2022/12/01 10:14:05;;;;;;;6.87;6.20;;;;;;;19.30;49.36;97661.97;5003585;28;20197;-91
2022/12/01 10:16:39;;;;;;;6.23;5.63;;;;;;;20.76;49.23;97920.41;5009370;28;20258;-92
2022/12/01 10:19:16;;;;;;;6.13;5.60;;;;;;;19.05;49.10;97619.31;4985251;28;20198;-93
2022/12/01 10:22:05;;;;;;;6.63;6.03;;;;;;;20.75;49.38;97916.97;5012804;28;20199;-92
2022/12/01 10:24:57;;;;;;;6.63;6.03;;;;;;;19.67;49.13;97724.66;5011257;28;20207;-90
2022/12/01 10:27:45;;;;;;;6.53;5.83;;;;;;;20.75;49.32;97899.09;4980657;28;20202;-92
2022/12/01 10:30:17;;;;;;;6.67;6.07;;;;;;;19.55;49.36;97690.16;5004069;28;20223;-92
2022/12/01 10:32:59;;;;;;;6.67;6.07;;;;;;;19.45;49.25;97672.78;5005666;28;20206;-91
2022/12/01 10:35:28;;;;;;;6.80;6.20;;;;;;;19.90;49.50;97745.97;5007948;28;20183;-92
2022/12/01 10:37:56;;;;;;;6.77;6.10;;;;;;;20.24;49.17;97799.19;4982833;28;20211;-92
2022/12/01 10:40:23;;;;;;;5.87;5.37;;;;;;;20.70;49.46;97884.41;5008518;28;20231;-90
2022/12/01 10:42:50;;;;;;;6.23;5.63;;;;;;;19.57;49.26;97698.75;4974232;28;20214;-92
2022/12/01 10:45:28;;;;;;;6.13;5.53;;;;;;;20.32;49.36;97819.09;5012003;28;20227;-91
2022/12/01 10:48:07;;;;;;;6.27;5.67;;;;;;;20.76;49.38;97887.19;5008389;28;20230;-92
2022/12/01 10:50:34;;;;;;;6.13;5.63;;;;;;;19.39;49.30;97658.09;5010693;28;20266;-92
2022/12/01 10:53:01;;;;;;;6.30;5.70;;;;;;;20.15;49.44;97809.91;4988470;28;20190;-91
2022/12/01 10:55:30;;;;;;;6.50;5.90;;;;;;;19.73;49.18;97711.28;5013423;28;20175;-91
2022/12/01 10:57:58;;;;;;;6.40;5.80;;;;;;;19.96;49.46;97761.50;4994390;28;20219;-90
2022/12/01 11:00:36;;;;;;;6.53;5.83;;;;;;;19.86;49.43;97747.53;4990813;28;20202;-92
2022/12/01 11:03:23;;;;;;;6.07;5.53;;;;;;;20.46;49.27;97838.34;5006738;28;20286;-92
2022/12/01 11:05:56;;;;;;;6.43;5.83;;;;;;;19.95;49.17;97741.91;4992323;28;20202;-92
2022/12/01 11:08:29;;;;;;;5.83;5.33;;;;;;;20.76;49.14;97877.84;5011454;28;20179;-89
2022/12/01 11:10:56;;;;;;;5.90;5.37;;;;;;;20.23;49.52;97782.16;5010019;28;20271;-92
2022/12/01 11:13:27;;;;;;;6.20;5.60;;;;;;;19.91;49.20;97748.59;5013167;28;20206;-92
2022/12/01 11:16:01;;;;;;;6.63;5.97;;;;;;;19.31;49.18;97616.16;4995248;28;20195;-92
2022/12/01 11:18:27;;;;;;;6.33;5.73;;;;;;;20.75;49.28;97868.44;4990488;28;20238;-92
2022/12/01 11:21:04;;;;;;;6.77;6.07;;;;;;;19.52;49.43;97656.91;5015180;28;20215;-89
2022/12/01 11:23:34;;;;;;;6.37;5.73;;;;;;;19.64;49.15;97665.03;4991898;28;20199;-92
2022/12/01 11:26:12;;;;;;;6.33;5.83;;;;;;;20.06;49.23;97743.19;5000707;28;20175;-92
2022/12/01 11:28:41;;;;;;;6.67;6.03;;;;;;;20.24;49.36;97772.00;5007912;28;20201;-91
2022/12/01 11:31:09;;;;;;;6.63;6.03;;;;;;;19.97;49.14;97724.97;4992800;28;20210;-93
2022/12/01 11:34:01;;;;;;;6.87;6.17;;;;;;;20.76;49.28;97861.66;5010487;28;20204;-91
2022/12/01 11:36:41;;;;;;;6.63;6.00;;;;;;;19.83;49.13;97708.25;5007266;28;20187;-92
2022/12/01 11:39:20;;;;;;;6.40;5.80;;;;;;;19.12;49.26;97579.66;5005142;28;20198;-91
2022/12/01 11:41:46;;;;;;;6.40;5.80;;;;;;;20.50;49.33;97812.16;5008935;28;20229;-92
2022/12/01 11:44:19;;;;;;;5.67;5.17;;;;;;;20.61;49.49;97843.19;5007883;28;20183;-92
2022/12/01 11:47:13;;;;;;;6.27;5.77;;;;;;;19.76;49.07;97691.88;5002499;28;20222;-92
2022/12/01 11:49:57;;;;;;;6.13;5.53;;;;;;;20.08;49.15;97735.59;4977890;28;20207;-90
2022/12/01 11:52:33;;;;;;;6.70;6.10;;;;;;;19.90;49.12;97702.59;5000881;28;20191;-89
2022/12/01 11:55:01;;;;;;;6.40;5.80;;;;;;;19.92;49.27;97726.47;4983538;28;20191;-92